EDT,Max TemperatureF,Mean TemperatureF,Min TemperatureF,Max Dew PointF,MeanDew PointF,Min DewpointF,Max Humidity, Mean Humidity, Min Humidity, Max Sea Level PressureIn, Mean Sea Level PressureIn, Min Sea Level PressureIn, Max VisibilityMiles, Mean VisibilityMiles, Min VisibilityMiles, Max Wind SpeedMPH, Mean Wind SpeedMPH, Max Gust SpeedMPH,PrecipitationIn, CloudCover, Events, WindDirDegrees
2012-10-1,66,60,55,63,58,54,100,90,73,29.96,29.92,29.87,10,7,4,7,2,,0.04,6,Rain,31
2012-10-2,71,66,60,70,65,61,100,95,88,29.95,29.89,29.85,7,3,0,8,4,,0.67,8,Fog-Rain,12
2012-10-3,84,76,69,73,69,63,100,82,48,30.13,30.05,29.94,10,7,0,9,1,,0.00,4,Fog,202
2012-10-4,82,71,60,70,62,54,94,74,37,30.16,30.14,30.11,10,10,10,9,2,,0.00,2,Rain,235
2012-10-5,80,66,51,61,53,45,100,70,28,30.16,30.09,29.99,10,9,2,10,1,,0.00,0,,192
2012-10-6,82,70,57,63,55,45,100,66,37,30.01,29.92,29.86,10,9,4,12,3,20,0.00,1,,242
2012-10-7,59,52,44,52,48,43,100,85,55,30.16,30.08,29.99,10,8,1,8,4,,0.55,7,Rain,18
2012-10-8,51,46,42,46,44,39,100,89,82,30.27,30.20,30.16,10,7,0,10,2,,0.07,8,Fog-Rain,20
2012-10-9,62,54,46,54,47,43,94,79,55,30.18,30.12,30.05,10,10,5,9,4,,0.00,8,Rain,19
2012-10-10,71,61,51,54,47,37,100,65,31,30.09,30.00,29.92,10,10,4,10,2,17,0.00,3,,245
2012-10-11,66,54,42,45,36,28,93,56,29,30.29,30.21,30.09,10,10,7,9,2,,0.00,0,,198
2012-10-12,71,56,41,48,39,30,100,62,22,30.40,30.21,30.14,10,10,3,13,3,20,0.00,0,,21
2012-10-13,64,50,37,45,36,30,93,64,31,30.50,30.41,30.33,10,10,10,9,2,,0.00,0,,148
2012-10-14,75,58,42,55,48,39,100,68,38,30.31,30.16,29.98,10,10,7,17,4,23,0.00,1,,202
2012-10-15,71,65,57,63,55,36,94,69,37,29.98,29.81,29.68,10,10,10,14,7,22,0.04,3,Rain,217
2012-10-16,69,54,39,48,39,34,93,57,28,29.93,29.89,29.83,10,10,7,8,2,,0.00,0,,255
2012-10-17,71,56,41,48,44,39,100,70,33,30.00,29.94,29.90,10,9,3,13,2,18,0.00,0,,191
2012-10-18,71,58,44,64,54,43,100,84,50,29.94,29.86,29.76,10,7,0,13,1,,0.30,4,Fog-Rain-Thunderstorm,173
2012-10-19,75,64,53,64,53,39,100,68,27,29.74,29.70,29.63,10,8,0,12,2,17,0.02,3,Fog-Rain-Thunderstorm,222
2012-10-20,69,56,44,45,37,30,93,51,23,29.94,29.80,29.70,10,10,10,12,3,16,0.00,0,,256
2012-10-21,66,52,37,45,36,28,100,62,24,30.13,30.07,29.94,10,10,2,6,1,,0.00,0,,267
2012-10-22,73,54,35,46,38,28,100,64,19,30.23,30.16,30.12,10,9,1,8,1,,0.00,0,,169
2012-10-23,82,62,42,52,47,41,100,62,25,30.15,30.10,30.04,10,10,5,12,2,,0.00,0,,194
2012-10-24,87,70,53,55,50,43,94,58,21,30.14,30.10,30.05,10,10,10,6,2,,0.00,0,,186
2012-10-25,84,67,50,61,52,45,100,66,26,30.16,30.12,30.10,10,8,1,6,1,,0.00,0,,102
2012-10-26,75,68,62,63,59,55,94,78,50,30.16,30.08,30.00,10,7,2,9,4,,0.00,6,Rain,40
2012-10-27,68,65,62,63,55,48,100,75,56,30.00,29.87,29.78,10,9,4,15,9,21,0.01,5,Rain,24
2012-10-28,62,58,53,52,47,39,94,66,42,29.78,29.67,29.57,10,9,4,20,11,26,0.19,8,Rain,6
2012-10-29,53,48,44,52,46,39,94,90,81,29.57,29.38,29.05,10,9,4,13,6,23,0.78,8,Rain,287
2012-10-30,48,44,39,39,32,27,93,63,43,29.49,29.28,29.04,10,10,7,15,10,24,0.16,6,Rain,227
2012-10-31,55,48,42,36,30,28,66,52,36,29.70,29.59,29.47,10,10,10,12,5,18,0.00,3,Rain,226